Time,TemperatureF,DewpointF,PressureIn,WindDirection,WindDirectionDegrees,WindSpeedMPH,WindSpeedGustMPH,Humidity,HourlyPrecipIn,Conditions,Clouds,dailyrainin,SoftwareType,DateUTC
2013-01-28 00:00:00,34.6,32.0,30.11,North,-999,-999.0,-999.0,90,0.00,,,0.00,tws,2013-01-28 05:00:00,
2013-01-28 00:10:00,34.5,32.2,30.10,North,-999,-999.0,-999.0,91,0.00,,,0.00,tws,2013-01-28 05:10:00,
2013-01-28 00:15:00,34.6,32.3,30.10,North,-999,-999.0,-999.0,91,0.00,,,0.00,tws,2013-01-28 05:15:00,
2013-01-28 00:20:00,34.6,32.5,30.11,North,-999,-999.0,-999.0,91,0.00,,,0.00,tws,2013-01-28 05:20:00,
2013-01-28 00:25:00,34.6,32.5,30.11,North,-999,-999.0,-999.0,92,0.00,,,0.00,tws,2013-01-28 05:25:00,
2013-01-28 00:30:00,34.7,32.7,30.11,North,-999,-999.0,-999.0,92,0.00,,,0.00,tws,2013-01-28 05:30:00,
2013-01-28 00:35:00,34.7,32.7,30.11,North,-999,-999.0,-999.0,92,0.00,,,0.00,tws,2013-01-28 05:35:00,
2013-01-28 00:40:00,34.7,32.8,30.10,North,-999,-999.0,-999.0,92,0.00,,,0.00,tws,2013-01-28 05:40:00,
2013-01-28 00:45:00,34.7,32.8,30.10,North,-999,-999.0,-999.0,92,0.00,,,0.00,tws,2013-01-28 05:45:00,
2013-01-28 00:50:00,34.7,32.8,30.11,North,-999,-999.0,-999.0,92,0.00,,,0.00,tws,2013-01-28 05:50:00,
2013-01-28 00:55:00,34.7,32.9,30.11,North,-999,-999.0,-999.0,93,0.00,,,0.00,tws,2013-01-28 05:55:00,
2013-01-28 01:00:00,34.7,33.0,30.11,North,-999,-999.0,-999.0,93,0.00,,,0.00,tws,2013-01-28 06:00:00,
2013-01-28 01:10:00,34.9,33.2,30.10,North,-999,-999.0,-999.0,93,0.00,,,0.00,tws,2013-01-28 06:10:00,
2013-01-28 01:15:00,35.0,33.5,30.10,North,-999,-999.0,-999.0,94,0.00,,,0.00,tws,2013-01-28 06:15:00,
2013-01-28 01:20:00,35.1,33.5,30.10,North,-999,-999.0,-999.0,93,0.00,,,0.00,tws,2013-01-28 06:20:00,
2013-01-28 01:25:00,35.2,33.6,30.10,North,-999,-999.0,-999.0,93,0.00,,,0.00,tws,2013-01-28 06:25:00,
2013-01-28 01:35:00,35.2,33.6,30.10,North,-999,-999.0,-999.0,93,0.00,,,0.00,tws,2013-01-28 06:35:00,
2013-01-28 01:40:00,35.2,33.6,30.10,North,-999,-999.0,-999.0,93,0.00,,,0.00,tws,2013-01-28 06:40:00,
2013-01-28 01:45:00,35.3,33.7,30.10,North,-999,-999.0,-999.0,93,0.00,,,0.00,tws,2013-01-28 06:45:00,
2013-01-28 01:50:00,35.3,33.8,30.10,North,-999,-999.0,-999.0,94,0.00,,,0.00,tws,2013-01-28 06:50:00,
2013-01-28 01:55:00,35.4,33.8,30.10,North,-999,-999.0,-999.0,94,0.00,,,0.00,tws,2013-01-28 06:55:00,
2013-01-28 02:00:00,35.4,33.9,30.09,North,-999,-999.0,-999.0,94,0.00,,,0.00,tws,2013-01-28 07:00:00,
2013-01-28 02:05:00,35.4,33.8,30.09,North,-999,-999.0,-999.0,93,0.00,,,0.00,tws,2013-01-28 07:05:00,
2013-01-28 02:10:00,35.3,33.6,30.08,North,-999,-999.0,-999.0,93,0.00,,,0.00,tws,2013-01-28 07:10:00,
2013-01-28 02:15:00,35.3,33.6,30.08,North,-999,-999.0,-999.0,93,0.00,,,0.00,tws,2013-01-28 07:15:00,
2013-01-28 02:20:00,35.3,33.6,30.08,North,-999,-999.0,-999.0,93,0.00,,,0.00,tws,2013-01-28 07:20:00,
2013-01-28 02:25:00,35.2,33.6,30.08,North,-999,-999.0,-999.0,93,0.00,,,0.00,tws,2013-01-28 07:25:00,
2013-01-28 02:30:00,35.2,33.4,30.09,North,-999,-999.0,-999.0,93,0.00,,,0.00,tws,2013-01-28 07:30:00,
2013-01-28 02:40:00,35.0,33.3,30.09,North,-999,-999.0,-999.0,93,0.00,,,0.00,tws,2013-01-28 07:40:00,
2013-01-28 02:45:00,35.2,33.4,30.09,North,-999,-999.0,-999.0,93,0.00,,,0.00,tws,2013-01-28 07:45:00,
2013-01-28 02:50:00,35.1,33.3,30.09,North,-999,-999.0,-999.0,93,0.00,,,0.00,tws,2013-01-28 07:50:00,
2013-01-28 02:55:00,35.2,33.5,30.09,North,-999,-999.0,-999.0,93,0.00,,,0.00,tws,2013-01-28 07:55:00,
2013-01-28 03:00:00,35.1,33.4,30.09,North,-999,-999.0,-999.0,93,0.00,,,0.00,tws,2013-01-28 08:00:00,
2013-01-28 03:05:00,35.0,33.3,30.09,North,-999,-999.0,-999.0,93,0.00,,,0.00,tws,2013-01-28 08:05:00,
2013-01-28 03:10:00,34.9,33.1,30.09,North,-999,-999.0,-999.0,93,0.00,,,0.00,tws,2013-01-28 08:10:00,
2013-01-28 03:15:00,34.8,32.9,30.09,North,-999,-999.0,-999.0,92,0.00,,,0.00,tws,2013-01-28 08:15:00,
2013-01-28 03:20:00,34.7,32.8,30.09,North,-999,-999.0,-999.0,92,0.00,,,0.00,tws,2013-01-28 08:20:00,
2013-01-28 03:25:00,34.7,32.9,30.09,North,-999,-999.0,-999.0,92,0.00,,,0.00,tws,2013-01-28 08:25:00,
2013-01-28 03:30:00,34.8,33.0,30.09,North,-999,-999.0,-999.0,93,0.00,,,0.00,tws,2013-01-28 08:30:00,
2013-01-28 03:35:00,34.7,32.9,30.08,North,-999,-999.0,-999.0,93,0.00,,,0.00,tws,2013-01-28 08:35:00,
2013-01-28 03:40:00,34.6,32.8,30.09,North,-999,-999.0,-999.0,93,0.00,,,0.00,tws,2013-01-28 08:40:00,
2013-01-28 03:45:00,34.6,32.8,30.09,North,-999,-999.0,-999.0,93,0.00,,,0.00,tws,2013-01-28 08:45:00,
2013-01-28 03:50:00,34.6,32.8,30.08,North,-999,-999.0,-999.0,93,0.00,,,0.00,tws,2013-01-28 08:50:00,
2013-01-28 03:55:00,34.7,33.1,30.08,North,-999,-999.0,-999.0,93,0.00,,,0.00,tws,2013-01-28 08:55:00,
2013-01-28 04:00:00,34.8,33.0,30.08,North,-999,-999.0,-999.0,93,0.00,,,0.00,tws,2013-01-28 09:00:00,
2013-01-28 04:05:00,34.7,32.9,30.08,North,-999,-999.0,-999.0,93,0.00,,,0.00,tws,2013-01-28 09:05:00,
2013-01-28 04:10:00,34.7,33.1,30.09,North,-999,-999.0,-999.0,93,0.00,,,0.00,tws,2013-01-28 09:10:00,
2013-01-28 04:15:00,34.8,33.2,30.09,North,-999,-999.0,-999.0,93,0.00,,,0.00,tws,2013-01-28 09:15:00,
2013-01-28 04:20:00,34.8,33.2,30.09,North,-999,-999.0,-999.0,93,0.00,,,0.00,tws,2013-01-28 09:20:00,
2013-01-28 04:25:00,34.9,33.1,30.09,North,-999,-999.0,-999.0,93,0.00,,,0.00,tws,2013-01-28 09:25:00,
2013-01-28 04:30:00,34.9,33.2,30.09,North,-999,-999.0,-999.0,93,0.00,,,0.00,tws,2013-01-28 09:30:00,
2013-01-28 04:35:00,34.9,33.3,30.08,North,-999,-999.0,-999.0,93,0.00,,,0.00,tws,2013-01-28 09:35:00,
2013-01-28 04:40:00,34.9,33.3,30.08,North,-999,-999.0,-999.0,93,0.00,,,0.00,tws,2013-01-28 09:40:00,
2013-01-28 04:45:00,35.0,33.4,30.08,North,-999,-999.0,-999.0,93,0.00,,,0.00,tws,2013-01-28 09:45:00,
2013-01-28 04:50:00,35.0,33.5,30.07,North,-999,-999.0,-999.0,93,0.00,,,0.00,tws,2013-01-28 09:50:00,
2013-01-28 04:55:00,35.0,33.6,30.07,North,-999,-999.0,-999.0,94,0.00,,,0.00,tws,2013-01-28 09:55:00,
2013-01-28 05:00:00,35.0,33.5,30.07,North,-999,-999.0,-999.0,94,0.00,,,0.00,tws,2013-01-28 10:00:00,
2013-01-28 05:05:00,35.0,33.5,30.07,North,-999,-999.0,-999.0,94,0.00,,,0.00,tws,2013-01-28 10:05:00,
2013-01-28 05:10:00,35.0,33.6,30.07,North,-999,-999.0,-999.0,94,0.00,,,0.00,tws,2013-01-28 10:10:00,
2013-01-28 05:15:00,35.0,33.6,30.08,North,-999,-999.0,-999.0,94,0.00,,,0.00,tws,2013-01-28 10:15:00,
2013-01-28 05:20:00,34.8,33.3,30.09,North,-999,-999.0,-999.0,94,0.00,,,0.00,tws,2013-01-28 10:20:00,
2013-01-28 05:25:00,34.8,33.4,30.09,North,-999,-999.0,-999.0,94,0.00,,,0.00,tws,2013-01-28 10:25:00,
2013-01-28 05:30:00,34.9,33.5,30.09,North,-999,-999.0,-999.0,94,0.00,,,0.00,tws,2013-01-28 10:30:00,
2013-01-28 05:35:00,34.8,33.4,30.08,North,-999,-999.0,-999.0,94,0.00,,,0.00,tws,2013-01-28 10:35:00,
2013-01-28 05:40:00,34.6,33.3,30.09,North,-999,-999.0,-999.0,94,0.00,,,0.00,tws,2013-01-28 10:40:00,
2013-01-28 05:45:00,34.5,33.1,30.09,North,-999,-999.0,-999.0,94,0.00,,,0.00,tws,2013-01-28 10:45:00,
2013-01-28 05:50:00,34.4,33.1,30.09,North,-999,-999.0,-999.0,95,0.00,,,0.00,tws,2013-01-28 10:50:00,
2013-01-28 05:55:00,34.4,33.2,30.09,North,-999,-999.0,-999.0,95,0.00,,,0.00,tws,2013-01-28 10:55:00,
2013-01-28 06:00:00,34.4,33.3,30.09,North,-999,-999.0,-999.0,95,0.00,,,0.00,tws,2013-01-28 11:00:00,
2013-01-28 06:05:00,34.4,33.2,30.09,North,-999,-999.0,-999.0,95,0.00,,,0.00,tws,2013-01-28 11:05:00,
2013-01-28 06:10:00,34.3,33.0,30.09,North,-999,-999.0,-999.0,95,0.00,,,0.00,tws,2013-01-28 11:10:00,
2013-01-28 06:15:00,34.2,32.9,30.09,North,-999,-999.0,-999.0,94,0.00,,,0.00,tws,2013-01-28 11:15:00,
2013-01-28 06:20:00,33.8,32.5,30.09,North,-999,-999.0,-999.0,94,0.00,,,0.00,tws,2013-01-28 11:20:00,
2013-01-28 06:25:00,33.6,32.4,30.09,North,-999,-999.0,-999.0,95,0.00,,,0.00,tws,2013-01-28 11:25:00,
2013-01-28 06:30:00,33.5,32.3,30.09,North,-999,-999.0,-999.0,95,0.00,,,0.00,tws,2013-01-28 11:30:00,
2013-01-28 06:35:00,33.3,32.2,30.10,North,-999,-999.0,-999.0,95,0.00,,,0.00,tws,2013-01-28 11:35:00,
2013-01-28 06:40:00,33.1,31.9,30.10,North,-999,-999.0,-999.0,95,0.00,,,0.00,tws,2013-01-28 11:40:00,
2013-01-28 06:45:00,32.9,31.8,30.10,North,-999,-999.0,-999.0,95,0.00,,,0.00,tws,2013-01-28 11:45:00,
2013-01-28 06:50:00,32.7,31.7,30.10,North,-999,-999.0,-999.0,96,0.00,,,0.00,tws,2013-01-28 11:50:00,
2013-01-28 06:55:00,32.6,31.6,30.10,North,-999,-999.0,-999.0,96,0.00,,,0.00,tws,2013-01-28 11:55:00,
2013-01-28 07:05:00,32.4,31.4,30.10,North,-999,-999.0,-999.0,96,0.00,,,0.00,tws,2013-01-28 12:05:00,
2013-01-28 07:10:00,32.2,31.2,30.10,North,-999,-999.0,-999.0,96,0.00,,,0.00,tws,2013-01-28 12:10:00,
2013-01-28 07:15:00,32.0,31.0,30.10,North,-999,-999.0,-999.0,96,0.00,,,0.00,tws,2013-01-28 12:15:00,
2013-01-28 07:20:00,31.9,31.1,30.10,North,-999,-999.0,-999.0,96,0.00,,,0.00,tws,2013-01-28 12:20:00,
2013-01-28 07:25:00,32.0,31.2,30.10,North,-999,-999.0,-999.0,96,0.00,,,0.00,tws,2013-01-28 12:25:00,
2013-01-28 07:30:00,32.0,31.2,30.10,North,-999,-999.0,-999.0,96,0.00,,,0.00,tws,2013-01-28 12:30:00,
2013-01-28 07:35:00,32.0,31.3,30.10,North,-999,-999.0,-999.0,97,0.00,,,0.00,tws,2013-01-28 12:35:00,
2013-01-28 07:40:00,32.1,31.3,30.10,North,-999,-999.0,-999.0,96,0.00,,,0.00,tws,2013-01-28 12:40:00,
2013-01-28 07:45:00,32.0,31.2,30.10,North,-999,-999.0,-999.0,96,0.00,,,0.00,tws,2013-01-28 12:45:00,
2013-01-28 07:50:00,32.0,31.3,30.10,North,-999,-999.0,-999.0,97,0.00,,,0.00,tws,2013-01-28 12:50:00,
2013-01-28 07:55:00,32.1,31.4,30.10,North,-999,-999.0,-999.0,97,0.00,,,0.00,tws,2013-01-28 12:55:00,
2013-01-28 08:00:00,32.3,31.6,30.09,North,-999,-999.0,-999.0,97,0.00,,,0.00,tws,2013-01-28 13:00:00,
2013-01-28 08:05:00,32.5,31.8,30.10,North,-999,-999.0,-999.0,97,0.00,,,0.00,tws,2013-01-28 13:05:00,
2013-01-28 08:10:00,32.7,32.1,30.10,North,-999,-999.0,-999.0,97,0.00,,,0.00,tws,2013-01-28 13:10:00,
2013-01-28 08:15:00,32.8,32.2,30.10,North,-999,-999.0,-999.0,97,0.00,,,0.00,tws,2013-01-28 13:15:00,
2013-01-28 08:20:00,33.2,32.6,30.10,North,-999,-999.0,-999.0,97,0.00,,,0.00,tws,2013-01-28 13:20:00,
2013-01-28 08:25:00,33.4,32.8,30.10,North,-999,-999.0,-999.0,97,0.00,,,0.00,tws,2013-01-28 13:25:00,
2013-01-28 08:30:00,33.5,32.8,30.10,North,-999,-999.0,-999.0,97,0.00,,,0.00,tws,2013-01-28 13:30:00,
2013-01-28 08:35:00,33.7,33.0,30.11,North,-999,-999.0,-999.0,97,0.00,,,0.00,tws,2013-01-28 13:35:00,
2013-01-28 08:40:00,34.1,33.5,30.11,North,-999,-999.0,-999.0,97,0.00,,,0.00,tws,2013-01-28 13:40:00,
2013-01-28 08:45:00,34.5,33.8,30.11,North,-999,-999.0,-999.0,97,0.00,,,0.00,tws,2013-01-28 13:45:00,
2013-01-28 08:50:00,34.9,34.3,30.11,North,-999,-999.0,-999.0,97,0.00,,,0.00,tws,2013-01-28 13:50:00,
2013-01-28 08:55:00,35.6,34.9,30.11,North,-999,-999.0,-999.0,97,0.00,,,0.00,tws,2013-01-28 13:55:00,
2013-01-28 09:00:00,36.3,35.5,30.10,North,-999,-999.0,-999.0,96,0.00,,,0.00,tws,2013-01-28 14:00:00,
2013-01-28 09:05:00,37.1,36.3,30.10,North,-999,-999.0,-999.0,96,0.00,,,0.00,tws,2013-01-28 14:05:00,
2013-01-28 09:10:00,38.0,37.0,30.10,North,-999,-999.0,-999.0,96,0.00,,,0.00,tws,2013-01-28 14:10:00,
2013-01-28 09:15:00,38.7,37.3,30.10,North,-999,-999.0,-999.0,94,0.00,,,0.00,tws,2013-01-28 14:15:00,
2013-01-28 09:20:00,39.1,37.1,30.10,North,-999,-999.0,-999.0,92,0.00,,,0.00,tws,2013-01-28 14:20:00,
2013-01-28 09:25:00,39.2,36.9,30.10,North,-999,-999.0,-999.0,91,0.00,,,0.00,tws,2013-01-28 14:25:00,
2013-01-28 09:35:00,39.1,36.2,30.10,North,-999,-999.0,-999.0,89,0.00,,,0.00,tws,2013-01-28 14:35:00,
2013-01-28 09:40:00,39.3,36.5,30.10,North,-999,-999.0,-999.0,89,0.00,,,0.00,tws,2013-01-28 14:40:00,
2013-01-28 09:45:00,39.9,36.9,30.09,North,-999,-999.0,-999.0,88,0.00,,,0.00,tws,2013-01-28 14:45:00,
2013-01-28 09:50:00,40.7,37.1,30.09,North,-999,-999.0,-999.0,86,0.00,,,0.00,tws,2013-01-28 14:50:00,
2013-01-28 09:55:00,41.6,37.4,30.09,North,-999,-999.0,-999.0,84,0.00,,,0.00,tws,2013-01-28 14:55:00,
2013-01-28 10:00:00,42.3,36.7,30.09,North,-999,-999.0,-999.0,80,0.00,,,0.00,tws,2013-01-28 15:00:00,
2013-01-28 10:05:00,42.8,37.0,30.09,North,-999,-999.0,-999.0,79,0.00,,,0.00,tws,2013-01-28 15:05:00,
2013-01-28 10:10:00,43.6,37.4,30.09,North,-999,-999.0,-999.0,78,0.00,,,0.00,tws,2013-01-28 15:10:00,
2013-01-28 10:15:00,44.4,37.7,30.09,North,-999,-999.0,-999.0,77,0.00,,,0.00,tws,2013-01-28 15:15:00,
2013-01-28 10:20:00,45.1,38.4,30.09,North,-999,-999.0,-999.0,77,0.00,,,0.00,tws,2013-01-28 15:20:00,
2013-01-28 10:25:00,45.7,38.9,30.09,North,-999,-999.0,-999.0,76,0.00,,,0.00,tws,2013-01-28 15:25:00,
2013-01-28 10:30:00,46.4,39.4,30.09,North,-999,-999.0,-999.0,76,0.00,,,0.00,tws,2013-01-28 15:30:00,
2013-01-28 10:35:00,47.1,40.3,30.09,North,-999,-999.0,-999.0,76,0.00,,,0.00,tws,2013-01-28 15:35:00,
2013-01-28 10:40:00,47.9,41.0,30.09,North,-999,-999.0,-999.0,76,0.00,,,0.00,tws,2013-01-28 15:40:00,
2013-01-28 10:50:00,49.0,41.7,30.10,North,-999,-999.0,-999.0,75,0.00,,,0.00,tws,2013-01-28 15:50:00,
2013-01-28 10:55:00,49.7,42.4,30.09,North,-999,-999.0,-999.0,75,0.00,,,0.00,tws,2013-01-28 15:55:00,
2013-01-28 11:00:00,50.6,43.3,30.09,North,-999,-999.0,-999.0,76,0.00,,,0.00,tws,2013-01-28 16:00:00,
2013-01-28 11:05:00,51.5,43.9,30.09,North,-999,-999.0,-999.0,75,0.00,,,0.00,tws,2013-01-28 16:05:00,
2013-01-28 11:10:00,52.3,44.4,30.09,North,-999,-999.0,-999.0,74,0.00,,,0.00,tws,2013-01-28 16:10:00,
2013-01-28 11:15:00,53.1,44.9,30.08,North,-999,-999.0,-999.0,73,0.00,,,0.00,tws,2013-01-28 16:15:00,
2013-01-28 11:20:00,53.9,46.0,30.08,North,-999,-999.0,-999.0,74,0.00,,,0.00,tws,2013-01-28 16:20:00,
2013-01-28 11:25:00,54.7,46.5,30.08,North,-999,-999.0,-999.0,73,0.00,,,0.00,tws,2013-01-28 16:25:00,
2013-01-28 11:30:00,55.5,47.0,30.07,North,-999,-999.0,-999.0,72,0.00,,,0.00,tws,2013-01-28 16:30:00,
2013-01-28 11:35:00,56.0,47.2,30.07,North,-999,-999.0,-999.0,72,0.00,,,0.00,tws,2013-01-28 16:35:00,
2013-01-28 11:40:00,56.3,47.4,30.07,North,-999,-999.0,-999.0,71,0.00,,,0.00,tws,2013-01-28 16:40:00,
2013-01-28 11:45:00,56.7,47.7,30.07,North,-999,-999.0,-999.0,71,0.00,,,0.00,tws,2013-01-28 16:45:00,
2013-01-28 11:50:00,57.0,47.6,30.06,North,-999,-999.0,-999.0,70,0.00,,,0.00,tws,2013-01-28 16:50:00,
2013-01-28 11:55:00,57.3,47.8,30.06,North,-999,-999.0,-999.0,70,0.00,,,0.00,tws,2013-01-28 16:55:00,
2013-01-28 12:00:00,57.7,48.1,30.06,North,-999,-999.0,-999.0,70,0.00,,,0.00,tws,2013-01-28 17:00:00,
2013-01-28 12:05:00,58.0,48.1,30.06,North,-999,-999.0,-999.0,69,0.00,,,0.00,tws,2013-01-28 17:05:00,
2013-01-28 12:10:00,58.3,48.5,30.06,North,-999,-999.0,-999.0,69,0.00,,,0.00,tws,2013-01-28 17:10:00,
2013-01-28 12:15:00,58.5,48.6,30.05,North,-999,-999.0,-999.0,69,0.00,,,0.00,tws,2013-01-28 17:15:00,
2013-01-28 12:20:00,58.7,48.6,30.04,North,-999,-999.0,-999.0,69,0.00,,,0.00,tws,2013-01-28 17:20:00,
2013-01-28 12:25:00,58.9,48.9,30.04,North,-999,-999.0,-999.0,69,0.00,,,0.00,tws,2013-01-28 17:25:00,
2013-01-28 12:30:00,59.0,48.7,30.03,North,-999,-999.0,-999.0,68,0.00,,,0.00,tws,2013-01-28 17:30:00,
2013-01-28 12:35:00,59.3,49.0,30.03,North,-999,-999.0,-999.0,68,0.00,,,0.00,tws,2013-01-28 17:35:00,
2013-01-28 12:40:00,59.5,49.0,30.03,North,-999,-999.0,-999.0,68,0.00,,,0.00,tws,2013-01-28 17:40:00,
2013-01-28 12:45:00,59.6,49.0,30.02,North,-999,-999.0,-999.0,67,0.00,,,0.00,tws,2013-01-28 17:45:00,
2013-01-28 12:50:00,59.7,49.0,30.02,North,-999,-999.0,-999.0,67,0.00,,,0.00,tws,2013-01-28 17:50:00,
2013-01-28 12:55:00,59.9,48.8,30.02,North,-999,-999.0,-999.0,66,0.00,,,0.00,tws,2013-01-28 17:55:00,
2013-01-28 13:00:00,60.0,48.9,30.01,North,-999,-999.0,-999.0,66,0.00,,,0.00,tws,2013-01-28 18:00:00,
2013-01-28 13:05:00,60.0,48.5,30.01,North,-999,-999.0,-999.0,65,0.00,,,0.00,tws,2013-01-28 18:05:00,
2013-01-28 13:10:00,60.0,48.7,30.00,North,-999,-999.0,-999.0,65,0.00,,,0.00,tws,2013-01-28 18:10:00,
2013-01-28 13:15:00,60.2,48.9,30.00,North,-999,-999.0,-999.0,66,0.00,,,0.00,tws,2013-01-28 18:15:00,
2013-01-28 13:20:00,60.3,48.8,29.99,North,-999,-999.0,-999.0,65,0.00,,,0.00,tws,2013-01-28 18:20:00,
2013-01-28 13:25:00,60.3,48.9,29.99,North,-999,-999.0,-999.0,65,0.00,,,0.00,tws,2013-01-28 18:25:00,
2013-01-28 13:30:00,60.1,48.5,29.99,North,-999,-999.0,-999.0,65,0.00,,,0.00,tws,2013-01-28 18:30:00,
2013-01-28 13:35:00,60.2,48.9,29.98,North,-999,-999.0,-999.0,65,0.00,,,0.00,tws,2013-01-28 18:35:00,
2013-01-28 13:40:00,60.6,49.5,29.98,North,-999,-999.0,-999.0,66,0.00,,,0.00,tws,2013-01-28 18:40:00,
2013-01-28 13:45:00,61.0,49.3,29.97,North,-999,-999.0,-999.0,65,0.00,,,0.00,tws,2013-01-28 18:45:00,
2013-01-28 13:50:00,61.3,49.6,29.97,North,-999,-999.0,-999.0,64,0.00,,,0.00,tws,2013-01-28 18:50:00,
2013-01-28 13:55:00,61.7,49.8,29.97,North,-999,-999.0,-999.0,64,0.00,,,0.00,tws,2013-01-28 18:55:00,
2013-01-28 14:00:00,61.9,49.9,29.96,North,-999,-999.0,-999.0,64,0.00,,,0.00,tws,2013-01-28 19:00:00,
2013-01-28 14:05:00,62.1,49.9,29.96,North,-999,-999.0,-999.0,63,0.00,,,0.00,tws,2013-01-28 19:05:00,
2013-01-28 14:10:00,62.1,49.7,29.96,North,-999,-999.0,-999.0,63,0.00,,,0.00,tws,2013-01-28 19:10:00,
2013-01-28 14:15:00,62.3,49.9,29.96,North,-999,-999.0,-999.0,63,0.00,,,0.00,tws,2013-01-28 19:15:00,
2013-01-28 14:20:00,62.2,49.7,29.95,North,-999,-999.0,-999.0,63,0.00,,,0.00,tws,2013-01-28 19:20:00,
2013-01-28 14:25:00,62.0,49.8,29.95,North,-999,-999.0,-999.0,63,0.00,,,0.00,tws,2013-01-28 19:25:00,
2013-01-28 14:30:00,62.6,49.4,29.95,North,-999,-999.0,-999.0,61,0.00,,,0.00,tws,2013-01-28 19:30:00,
2013-01-28 14:35:00,63.4,48.9,29.95,North,-999,-999.0,-999.0,58,0.00,,,0.00,tws,2013-01-28 19:35:00,
2013-01-28 14:40:00,64.0,49.1,29.95,North,-999,-999.0,-999.0,58,0.00,,,0.00,tws,2013-01-28 19:40:00,
2013-01-28 14:45:00,64.3,48.7,29.95,North,-999,-999.0,-999.0,56,0.00,,,0.00,tws,2013-01-28 19:45:00,
2013-01-28 14:50:00,64.2,48.6,29.95,North,-999,-999.0,-999.0,56,0.00,,,0.00,tws,2013-01-28 19:50:00,
2013-01-28 14:55:00,63.7,48.7,29.94,North,-999,-999.0,-999.0,57,0.00,,,0.00,tws,2013-01-28 19:55:00,
2013-01-28 15:00:00,63.3,48.5,29.95,North,-999,-999.0,-999.0,58,0.00,,,0.00,tws,2013-01-28 20:00:00,
2013-01-28 15:05:00,63.2,48.9,29.94,North,-999,-999.0,-999.0,59,0.00,,,0.00,tws,2013-01-28 20:05:00,
2013-01-28 15:10:00,63.9,49.1,29.94,North,-999,-999.0,-999.0,58,0.00,,,0.00,tws,2013-01-28 20:10:00,
2013-01-28 15:15:00,64.3,48.3,29.95,North,-999,-999.0,-999.0,55,0.00,,,0.00,tws,2013-01-28 20:15:00,
2013-01-28 15:20:00,64.2,48.2,29.94,North,-999,-999.0,-999.0,55,0.00,,,0.00,tws,2013-01-28 20:20:00,
2013-01-28 15:25:00,64.4,48.5,29.94,North,-999,-999.0,-999.0,55,0.00,,,0.00,tws,2013-01-28 20:25:00,
2013-01-28 15:30:00,64.2,48.4,29.94,North,-999,-999.0,-999.0,55,0.00,,,0.00,tws,2013-01-28 20:30:00,
2013-01-28 15:35:00,64.1,48.8,29.94,North,-999,-999.0,-999.0,57,0.00,,,0.00,tws,2013-01-28 20:35:00,
2013-01-28 15:40:00,64.1,49.0,29.94,North,-999,-999.0,-999.0,57,0.00,,,0.00,tws,2013-01-28 20:40:00,
2013-01-28 15:45:00,64.0,49.0,29.94,North,-999,-999.0,-999.0,57,0.00,,,0.00,tws,2013-01-28 20:45:00,
2013-01-28 15:50:00,63.8,48.8,29.94,North,-999,-999.0,-999.0,57,0.00,,,0.00,tws,2013-01-28 20:50:00,
2013-01-28 15:55:00,63.6,48.7,29.94,North,-999,-999.0,-999.0,58,0.00,,,0.00,tws,2013-01-28 20:55:00,
2013-01-28 16:00:00,63.3,48.7,29.94,North,-999,-999.0,-999.0,58,0.00,,,0.00,tws,2013-01-28 21:00:00,
2013-01-28 16:10:00,62.8,48.5,29.94,North,-999,-999.0,-999.0,59,0.00,,,0.00,tws,2013-01-28 21:10:00,
2013-01-28 16:15:00,62.6,48.3,29.94,North,-999,-999.0,-999.0,59,0.00,,,0.00,tws,2013-01-28 21:15:00,
2013-01-28 16:20:00,62.4,48.2,29.94,North,-999,-999.0,-999.0,59,0.00,,,0.00,tws,2013-01-28 21:20:00,
2013-01-28 16:25:00,62.1,48.2,29.94,North,-999,-999.0,-999.0,59,0.00,,,0.00,tws,2013-01-28 21:25:00,
2013-01-28 16:30:00,61.9,48.2,29.94,North,-999,-999.0,-999.0,60,-99.99,,,-99.99,tws,2013-01-28 21:30:00,
2013-01-28 16:35:00,61.7,48.2,29.94,North,-999,-999.0,-999.0,60,99.99,,,0.00,tws,2013-01-28 21:35:00,
2013-01-28 16:40:00,61.5,48.2,29.94,North,-999,-999.0,-999.0,61,0.00,,,0.00,tws,2013-01-28 21:40:00,
2013-01-28 16:45:00,61.2,48.1,29.94,North,-999,-999.0,-999.0,61,0.00,,,0.00,tws,2013-01-28 21:45:00,
2013-01-28 16:50:00,61.0,48.0,29.94,North,-999,-999.0,-999.0,61,0.00,,,0.00,tws,2013-01-28 21:50:00,
2013-01-28 16:55:00,60.9,47.9,29.94,North,-999,-999.0,-999.0,62,0.00,,,0.00,tws,2013-01-28 21:55:00,
2013-01-28 17:00:00,60.7,48.0,29.94,North,-999,-999.0,-999.0,62,0.00,,,0.00,tws,2013-01-28 22:00:00,
2013-01-28 17:05:00,60.4,47.9,29.94,North,-999,-999.0,-999.0,63,0.00,,,0.00,tws,2013-01-28 22:05:00,
2013-01-28 17:10:00,60.0,47.8,29.94,North,-999,-999.0,-999.0,63,0.00,,,0.00,tws,2013-01-28 22:10:00,
2013-01-28 17:15:00,59.6,47.8,29.95,North,-999,-999.0,-999.0,64,0.00,,,0.00,tws,2013-01-28 22:15:00,
2013-01-28 17:20:00,59.2,47.7,29.95,North,-999,-999.0,-999.0,65,0.00,,,0.00,tws,2013-01-28 22:20:00,
2013-01-28 17:25:00,59.0,47.7,29.94,North,-999,-999.0,-999.0,65,0.00,,,0.00,tws,2013-01-28 22:25:00,
2013-01-28 17:30:00,58.8,47.6,29.94,North,-999,-999.0,-999.0,66,0.00,,,0.00,tws,2013-01-28 22:30:00,
2013-01-28 17:35:00,58.6,47.6,29.95,North,-999,-999.0,-999.0,66,0.00,,,0.00,tws,2013-01-28 22:35:00,
2013-01-28 17:40:00,58.3,47.7,29.95,North,-999,-999.0,-999.0,67,0.00,,,0.00,tws,2013-01-28 22:40:00,
2013-01-28 17:45:00,58.0,47.5,29.95,North,-999,-999.0,-999.0,67,0.00,,,0.00,tws,2013-01-28 22:45:00,
2013-01-28 17:50:00,57.6,47.5,29.95,North,-999,-999.0,-999.0,68,0.00,,,0.00,tws,2013-01-28 22:50:00,
2013-01-28 17:55:00,57.1,47.4,29.95,North,-999,-999.0,-999.0,69,0.00,,,0.00,tws,2013-01-28 22:55:00,
2013-01-28 18:00:00,56.8,47.3,29.96,North,-999,-999.0,-999.0,70,0.00,,,0.00,tws,2013-01-28 23:00:00,
2013-01-28 18:05:00,56.5,47.2,29.96,North,-999,-999.0,-999.0,70,0.00,,,0.00,tws,2013-01-28 23:05:00,
2013-01-28 18:10:00,56.3,47.5,29.96,North,-999,-999.0,-999.0,71,0.00,,,0.00,tws,2013-01-28 23:10:00,
2013-01-28 18:15:00,56.1,47.5,29.96,North,-999,-999.0,-999.0,72,0.00,,,0.00,tws,2013-01-28 23:15:00,
2013-01-28 18:20:00,55.8,47.3,29.96,North,-999,-999.0,-999.0,72,0.00,,,0.00,tws,2013-01-28 23:20:00,
2013-01-28 18:25:00,55.4,47.3,29.96,North,-999,-999.0,-999.0,73,0.00,,,0.00,tws,2013-01-28 23:25:00,
2013-01-28 18:30:00,55.2,47.3,29.96,North,-999,-999.0,-999.0,74,0.00,,,0.00,tws,2013-01-28 23:30:00,
2013-01-28 18:35:00,55.0,47.2,29.96,North,-999,-999.0,-999.0,74,0.00,,,0.00,tws,2013-01-28 23:35:00,
2013-01-28 18:40:00,54.7,47.1,29.96,North,-999,-999.0,-999.0,75,0.00,,,0.00,tws,2013-01-28 23:40:00,
2013-01-28 18:45:00,54.3,46.8,29.97,North,-999,-999.0,-999.0,75,0.00,,,0.00,tws,2013-01-28 23:45:00,
2013-01-28 18:50:00,53.7,46.4,29.97,North,-999,-999.0,-999.0,76,0.00,,,0.00,tws,2013-01-28 23:50:00,
2013-01-28 18:55:00,53.0,45.9,29.97,North,-999,-999.0,-999.0,76,0.00,,,0.00,tws,2013-01-28 23:55:00,
2013-01-28 19:00:00,52.3,45.5,29.97,North,-999,-999.0,-999.0,77,0.00,,,0.00,tws,2013-01-29 00:00:00,
2013-01-28 19:05:00,51.8,45.4,29.97,North,-999,-999.0,-999.0,78,0.00,,,0.00,tws,2013-01-29 00:05:00,
2013-01-28 19:10:00,51.4,45.3,29.97,North,-999,-999.0,-999.0,79,0.00,,,0.00,tws,2013-01-29 00:10:00,
2013-01-28 19:15:00,51.0,45.1,29.97,North,-999,-999.0,-999.0,80,0.00,,,0.00,tws,2013-01-29 00:15:00,
2013-01-28 19:20:00,50.8,45.0,29.97,North,-999,-999.0,-999.0,80,0.00,,,0.00,tws,2013-01-29 00:20:00,
2013-01-28 19:25:00,50.3,44.7,29.97,North,-999,-999.0,-999.0,80,0.00,,,0.00,tws,2013-01-29 00:25:00,
2013-01-28 19:30:00,49.8,44.4,29.97,North,-999,-999.0,-999.0,81,0.00,,,0.00,tws,2013-01-29 00:30:00,
2013-01-28 19:35:00,49.5,44.1,29.97,North,-999,-999.0,-999.0,81,0.00,,,0.00,tws,2013-01-29 00:35:00,
2013-01-28 19:40:00,49.1,44.2,29.97,North,-999,-999.0,-999.0,82,0.00,,,0.00,tws,2013-01-29 00:40:00,
2013-01-28 19:45:00,48.9,44.2,29.97,North,-999,-999.0,-999.0,83,0.00,,,0.00,tws,2013-01-29 00:45:00,
2013-01-28 19:50:00,48.7,44.0,29.97,North,-999,-999.0,-999.0,83,0.00,,,0.00,tws,2013-01-29 00:50:00,
2013-01-28 19:55:00,48.4,43.6,29.97,North,-999,-999.0,-999.0,83,0.00,,,0.00,tws,2013-01-29 00:55:00,
2013-01-28 20:00:00,48.0,43.3,29.97,North,-999,-999.0,-999.0,83,0.00,,,0.00,tws,2013-01-29 01:00:00,
2013-01-28 20:05:00,47.6,43.1,29.97,North,-999,-999.0,-999.0,84,0.00,,,0.00,tws,2013-01-29 01:05:00,
2013-01-28 20:10:00,47.3,42.8,29.97,North,-999,-999.0,-999.0,84,0.00,,,0.00,tws,2013-01-29 01:10:00,
2013-01-28 20:15:00,47.1,42.8,29.97,North,-999,-999.0,-999.0,84,0.00,,,0.00,tws,2013-01-29 01:15:00,
2013-01-28 20:20:00,47.0,42.9,29.97,North,-999,-999.0,-999.0,85,0.00,,,0.00,tws,2013-01-29 01:20:00,
2013-01-28 20:25:00,46.8,42.9,29.97,North,-999,-999.0,-999.0,85,0.00,,,0.00,tws,2013-01-29 01:25:00,
2013-01-28 20:30:00,46.8,43.0,29.97,North,-999,-999.0,-999.0,86,0.00,,,0.00,tws,2013-01-29 01:30:00,
2013-01-28 20:35:00,46.9,42.9,29.97,North,-999,-999.0,-999.0,86,0.00,,,0.00,tws,2013-01-29 01:35:00,
2013-01-28 20:40:00,46.8,43.1,29.97,North,-999,-999.0,-999.0,86,0.00,,,0.00,tws,2013-01-29 01:40:00,
2013-01-28 20:45:00,46.8,43.2,29.97,North,-999,-999.0,-999.0,87,0.00,,,0.00,tws,2013-01-29 01:45:00,
2013-01-28 20:50:00,46.8,43.4,29.97,North,-999,-999.0,-999.0,87,0.00,,,0.00,tws,2013-01-29 01:50:00,
2013-01-28 20:55:00,46.8,43.3,29.97,North,-999,-999.0,-999.0,87,0.00,,,0.00,tws,2013-01-29 01:55:00,
2013-01-28 21:00:00,46.9,43.2,29.97,North,-999,-999.0,-999.0,86,0.00,,,0.00,tws,2013-01-29 02:00:00,
2013-01-28 21:05:00,46.9,43.3,29.97,North,-999,-999.0,-999.0,87,0.00,,,0.00,tws,2013-01-29 02:05:00,
2013-01-28 21:10:00,46.8,43.3,29.97,North,-999,-999.0,-999.0,87,0.00,,,0.00,tws,2013-01-29 02:10:00,
2013-01-28 21:15:00,46.8,43.4,29.97,North,-999,-999.0,-999.0,88,0.00,,,0.00,tws,2013-01-29 02:15:00,
2013-01-28 21:20:00,46.9,43.5,29.97,North,-999,-999.0,-999.0,87,0.00,,,0.00,tws,2013-01-29 02:20:00,
2013-01-28 21:25:00,47.0,43.6,29.97,North,-999,-999.0,-999.0,88,0.00,,,0.00,tws,2013-01-29 02:25:00,
2013-01-28 21:30:00,47.1,43.6,29.97,North,-999,-999.0,-999.0,87,0.00,,,0.00,tws,2013-01-29 02:30:00,
2013-01-28 21:35:00,47.1,43.6,29.97,North,-999,-999.0,-999.0,87,0.00,,,0.00,tws,2013-01-29 02:35:00,
2013-01-28 21:40:00,47.1,43.6,29.97,North,-999,-999.0,-999.0,87,0.00,,,0.00,tws,2013-01-29 02:40:00,
2013-01-28 21:45:00,47.0,43.5,29.97,North,-999,-999.0,-999.0,87,0.00,,,0.00,tws,2013-01-29 02:45:00,
2013-01-28 21:50:00,46.9,43.3,29.97,North,-999,-999.0,-999.0,87,0.00,,,0.00,tws,2013-01-29 02:50:00,
2013-01-28 21:55:00,46.7,43.2,29.96,North,-999,-999.0,-999.0,87,0.00,,,0.00,tws,2013-01-29 02:55:00,
2013-01-28 22:00:00,46.6,43.2,29.97,North,-999,-999.0,-999.0,88,0.00,,,0.00,tws,2013-01-29 03:00:00,
2013-01-28 22:05:00,46.4,43.1,29.97,North,-999,-999.0,-999.0,88,0.00,,,0.00,tws,2013-01-29 03:05:00,
2013-01-28 22:10:00,46.2,42.9,29.97,North,-999,-999.0,-999.0,88,0.00,,,0.00,tws,2013-01-29 03:10:00,
2013-01-28 22:15:00,46.1,43.0,29.97,North,-999,-999.0,-999.0,88,0.00,,,0.00,tws,2013-01-29 03:15:00,
2013-01-28 22:20:00,46.1,43.0,29.97,North,-999,-999.0,-999.0,89,0.00,,,0.00,tws,2013-01-29 03:20:00,
2013-01-28 22:25:00,46.1,43.2,29.97,North,-999,-999.0,-999.0,89,0.00,,,0.00,tws,2013-01-29 03:25:00,
2013-01-28 22:30:00,46.2,43.2,29.96,North,-999,-999.0,-999.0,89,0.00,,,0.00,tws,2013-01-29 03:30:00,
2013-01-28 22:35:00,46.0,43.1,29.97,North,-999,-999.0,-999.0,89,0.00,,,0.00,tws,2013-01-29 03:35:00,
2013-01-28 22:40:00,45.9,43.1,29.96,North,-999,-999.0,-999.0,89,0.00,,,0.00,tws,2013-01-29 03:40:00,
2013-01-28 22:45:00,45.9,43.1,29.96,North,-999,-999.0,-999.0,89,0.00,,,0.00,tws,2013-01-29 03:45:00,
2013-01-28 22:50:00,45.8,43.0,29.96,North,-999,-999.0,-999.0,89,0.00,,,0.00,tws,2013-01-29 03:50:00,
2013-01-28 22:55:00,45.8,42.9,29.96,North,-999,-999.0,-999.0,89,0.00,,,0.00,tws,2013-01-29 03:55:00,
2013-01-28 23:00:00,45.7,42.9,29.96,North,-999,-999.0,-999.0,89,0.00,,,0.00,tws,2013-01-29 04:00:00,
2013-01-28 23:05:00,45.5,42.7,29.96,North,-999,-999.0,-999.0,89,0.00,,,0.00,tws,2013-01-29 04:05:00,
2013-01-28 23:10:00,45.3,42.6,29.96,North,-999,-999.0,-999.0,90,0.00,,,0.00,tws,2013-01-29 04:10:00,
2013-01-28 23:15:00,45.1,42.5,29.96,North,-999,-999.0,-999.0,90,0.00,,,0.00,tws,2013-01-29 04:15:00,
2013-01-28 23:25:00,44.8,42.5,29.97,North,-999,-999.0,-999.0,91,0.00,,,0.00,tws,2013-01-29 04:25:00,
2013-01-28 23:30:00,44.7,42.3,29.97,North,-999,-999.0,-999.0,91,0.00,,,0.00,tws,2013-01-29 04:30:00,
2013-01-28 23:40:00,44.4,42.2,29.96,North,-999,-999.0,-999.0,91,0.00,,,0.00,tws,2013-01-29 04:40:00,
2013-01-28 23:45:00,44.3,42.1,29.96,North,-999,-999.0,-999.0,91,0.00,,,0.00,tws,2013-01-29 04:45:00,
2013-01-28 23:50:00,44.1,41.9,29.97,North,-999,-999.0,-999.0,91,0.00,,,0.00,tws,2013-01-29 04:50:00,
2013-01-28 23:55:00,43.8,41.7,29.96,North,-999,-999.0,-999.0,92,0.00,,,0.00,tws,2013-01-29 04:55:00,